Time;durP1;ratioP1;P1;durP2;ratioP2;P2;SDS_P1;SDS_P2;PMS_P1;PMS_P2;Temp;Humidity;BMP_temperature;BMP_pressure;BME280_temperature;BME280_humidity;BME280_pressure;Samples;Min_cycle;Max_cycle;Signal;HPM_P1;HPM_P2
2021/07/14 00:01:08;;;;;;;2.05;0.82;;;11.10;76.40;;;;;;5012600;28;20058;-67
2021/07/14 00:03:35;;;;;;;4.25;1.48;;;11.10;76.40;;;;;;5010113;28;20056;-67
2021/07/14 00:06:01;;;;;;;2.78;0.88;;;11.10;76.40;;;;;;5013560;28;20080;-67
2021/07/14 00:08:28;;;;;;;3.10;1.10;;;11.10;76.10;;;;;;5012205;28;20026;-66
2021/07/14 00:10:54;;;;;;;3.70;0.65;;;11.10;76.50;;;;;;5014630;28;20464;-67
2021/07/14 00:13:29;;;;;;;4.10;1.15;;;11.10;76.50;;;;;;5013458;28;20076;-67
2021/07/14 00:23:59;;;;;;;;;;;11.10;76.80;;;;;;5010410;28;20060;-67
2021/07/14 00:26:26;;;;;;;4.65;0.90;;;11.00;76.50;;;;;;5008924;28;20347;-67
2021/07/14 00:28:52;;;;;;;3.35;0.77;;;11.00;77.00;;;;;;5013166;28;20022;-67
2021/07/14 00:31:19;;;;;;;2.70;0.82;;;11.00;77.00;;;;;;5012518;28;20033;-67
2021/07/14 00:33:47;;;;;;;7.82;1.13;;;11.00;76.80;;;;;;5011972;28;20085;-67
2021/07/14 00:36:14;;;;;;;3.00;1.13;;;11.00;76.90;;;;;;5012597;28;20018;-67
2021/07/14 00:38:41;;;;;;;3.03;1.52;;;11.00;76.90;;;;;;5011844;28;20014;-67
2021/07/14 00:41:08;;;;;;;3.03;1.08;;;11.00;77.00;;;;;;5011987;28;20022;-67
2021/07/14 00:43:35;;;;;;;3.80;0.80;;;11.00;77.00;;;;;;5010556;28;20096;-67
2021/07/14 00:46:22;;;;;;;3.92;0.70;;;11.00;77.10;;;;;;5015201;28;20097;-67
2021/07/14 00:48:50;;;;;;;3.13;0.70;;;11.00;76.90;;;;;;5011691;28;20505;-67
2021/07/14 00:51:18;;;;;;;1.95;0.73;;;11.00;77.00;;;;;;5010431;28;20014;-67
2021/07/14 00:53:45;;;;;;;2.33;0.82;;;11.00;76.80;;;;;;5013305;28;20026;-67
2021/07/14 00:56:11;;;;;;;5.63;1.02;;;11.00;76.90;;;;;;5010576;28;20523;-67
2021/07/14 00:58:38;;;;;;;2.50;0.85;;;11.00;76.80;;;;;;5013994;28;20018;-67
2021/07/14 01:01:05;;;;;;;4.07;1.13;;;11.00;76.70;;;;;;5015100;28;20519;-67
2021/07/14 01:03:36;;;;;;;5.53;1.73;;;11.00;76.70;;;;;;5011596;28;20120;-67
2021/07/14 01:06:05;;;;;;;3.15;1.80;;;11.00;76.70;;;;;;5010453;28;20014;-67
2021/07/14 01:09:07;;;;;;;6.15;0.80;;;10.90;76.80;;;;;;5010567;28;20010;-67
2021/07/14 01:11:36;;;;;;;5.95;0.95;;;10.90;76.90;;;;;;5010887;28;20042;-67
2021/07/14 01:14:25;;;;;;;2.40;1.08;;;10.90;77.20;;;;;;5012065;28;20034;-67
2021/07/14 01:17:02;;;;;;;2.28;0.63;;;10.90;77.00;;;;;;5011415;28;20022;-67
2021/07/14 01:20:10;;;;;;;9.10;2.38;;;10.90;77.10;;;;;;5010912;28;20110;-66
2021/07/14 01:22:52;;;;;;;4.40;1.20;;;11.00;77.10;;;;;;5009889;28;20129;-67
2021/07/14 01:25:38;;;;;;;2.47;1.17;;;11.00;77.30;;;;;;5012101;28;20060;-67
2021/07/14 01:28:07;;;;;;;8.00;0.90;;;11.00;77.20;;;;;;5011812;28;20045;-67
2021/07/14 01:30:34;;;;;;;3.75;1.63;;;11.00;77.30;;;;;;5010150;28;20022;-67
2021/07/14 01:33:02;;;;;;;2.58;1.15;;;11.00;77.40;;;;;;5015091;28;20018;-67
2021/07/14 01:35:36;;;;;;;3.72;0.75;;;11.00;77.20;;;;;;5010637;28;20029;-67
2021/07/14 01:38:04;;;;;;;2.05;0.75;;;11.00;77.30;;;;;;5008956;28;20034;-66
2021/07/14 01:40:33;;;;;;;5.65;0.95;;;11.00;77.10;;;;;;5013035;28;20626;-67
2021/07/14 01:43:02;;;;;;;2.92;0.93;;;11.00;77.20;;;;;;5012182;28;20036;-66
2021/07/14 01:45:30;;;;;;;4.90;1.58;;;11.00;77.20;;;;;;5013970;28;20017;-67
2021/07/14 01:48:00;;;;;;;1.80;0.77;;;11.00;77.30;;;;;;5009328;28;20024;-67
2021/07/14 01:50:30;;;;;;;5.60;1.00;;;11.00;77.30;;;;;;5010926;28;20026;-66
2021/07/14 01:52:58;;;;;;;4.35;1.60;;;11.00;77.20;;;;;;5009729;28;20863;-67
2021/07/14 01:55:26;;;;;;;2.60;1.10;;;11.00;77.30;;;;;;5010505;28;20018;-67
2021/07/14 01:57:56;;;;;;;6.95;1.15;;;11.00;77.20;;;;;;5012118;28;20091;-67
2021/07/14 02:00:24;;;;;;;4.20;2.03;;;11.00;77.30;;;;;;5008995;28;21131;-67
2021/07/14 02:05:19;;;;;;;2.83;0.80;;;11.10;77.80;;;;;;5012452;28;20468;-67
2021/07/14 02:07:46;;;;;;;2.15;1.35;;;11.10;77.60;;;;;;5015019;28;20089;-67
2021/07/14 02:10:13;;;;;;;6.25;2.08;;;11.10;77.50;;;;;;5011362;28;20358;-67
2021/07/14 02:12:44;;;;;;;3.20;0.60;;;11.20;77.60;;;;;;5011708;28;20372;-67
2021/07/14 02:15:11;;;;;;;2.72;0.90;;;11.20;77.50;;;;;;5011650;28;20030;-67
2021/07/14 02:18:01;;;;;;;7.20;1.38;;;11.20;77.40;;;;;;5008541;28;20049;-67
2021/07/14 02:20:28;;;;;;;8.32;1.67;;;11.20;77.50;;;;;;5011648;28;20398;-67
2021/07/14 02:22:54;;;;;;;3.38;0.80;;;11.20;77.70;;;;;;5010137;28;20034;-67
2021/07/14 02:25:22;;;;;;;2.42;0.77;;;11.20;77.70;;;;;;5009856;28;20436;-67
2021/07/14 02:27:49;;;;;;;2.85;0.82;;;11.20;77.70;;;;;;5011966;28;20048;-67
2021/07/14 02:30:19;;;;;;;6.07;1.73;;;11.20;77.50;;;;;;5008292;28;20022;-67
2021/07/14 02:33:04;;;;;;;5.97;2.33;;;11.20;77.80;;;;;;5009878;28;20018;-67
2021/07/14 02:35:36;;;;;;;5.30;1.25;;;11.20;78.00;;;;;;5011490;28;20444;-67
2021/07/14 02:38:23;;;;;;;4.88;1.52;;;11.30;78.20;;;;;;5011172;28;20497;-67
2021/07/14 02:40:57;;;;;;;8.35;1.92;;;11.30;78.10;;;;;;5009848;28;20073;-67
2021/07/14 02:43:28;;;;;;;4.30;0.97;;;11.30;78.20;;;;;;5009628;28;20095;-67
2021/07/14 02:46:03;;;;;;;6.07;1.42;;;11.30;77.90;;;;;;5013447;28;20044;-67
2021/07/14 02:48:31;;;;;;;5.43;1.70;;;11.30;78.20;;;;;;5009302;28;20025;-67
2021/07/14 02:51:00;;;;;;;4.25;1.38;;;11.30;78.00;;;;;;5014282;28;20022;-67
2021/07/14 02:53:32;;;;;;;2.60;1.10;;;11.30;78.10;;;;;;5009789;28;20056;-67
2021/07/14 02:56:04;;;;;;;8.18;2.10;;;11.30;78.10;;;;;;5012350;28;20075;-67
2021/07/14 02:58:33;;;;;;;3.42;0.95;;;11.30;78.10;;;;;;5013061;28;20026;-67
2021/07/14 03:01:01;;;;;;;1.40;0.57;;;11.30;78.20;;;;;;5008544;28;20026;-67
2021/07/14 03:03:29;;;;;;;3.08;0.90;;;11.30;78.20;;;;;;5011133;28;20030;-67
2021/07/14 03:05:59;;;;;;;3.28;1.08;;;11.30;78.40;;;;;;5010130;28;20049;-67
2021/07/14 03:09:08;;;;;;;4.70;1.33;;;11.30;78.50;;;;;;5006884;28;20441;-67
2021/07/14 03:12:14;;;;;;;9.35;1.70;;;11.30;78.70;;;;;;5009877;28;20030;-67
2021/07/14 03:15:26;;;;;;;4.15;1.33;;;11.30;78.50;;;;;;5014077;28;20923;-67
2021/07/14 03:18:32;;;;;;;4.65;1.35;;;11.40;78.30;;;;;;5013944;28;20050;-67
2021/07/14 03:21:38;;;;;;;4.57;0.88;;;11.30;78.10;;;;;;5011375;28;20040;-67
2021/07/14 03:24:08;;;;;;;4.35;1.48;;;11.30;78.30;;;;;;5011690;28;20693;-67
2021/07/14 03:26:38;;;;;;;4.50;0.70;;;11.30;78.10;;;;;;5003005;28;20507;-67
2021/07/14 03:29:05;;;;;;;3.85;0.70;;;11.30;78.00;;;;;;5013825;28;20033;-68
2021/07/14 03:31:32;;;;;;;5.00;1.45;;;11.30;78.00;;;;;;5012643;28;20072;-67
2021/07/14 03:34:00;;;;;;;4.63;1.48;;;11.30;77.90;;;;;;5014339;28;20401;-67
2021/07/14 03:36:27;;;;;;;6.97;2.25;;;11.30;78.30;;;;;;5012623;28;20022;-67
2021/07/14 03:38:54;;;;;;;4.15;1.05;;;11.20;77.90;;;;;;5012145;28;20089;-67
2021/07/14 03:41:21;;;;;;;6.72;1.20;;;11.30;77.90;;;;;;5012865;28;20032;-67
2021/07/14 03:43:49;;;;;;;6.18;1.10;;;11.20;78.60;;;;;;5014204;28;20041;-67
2021/07/14 03:46:17;;;;;;;1.08;0.70;;;11.20;78.10;;;;;;5016594;28;20018;-67
2021/07/14 03:48:45;;;;;;;5.32;1.33;;;11.20;78.20;;;;;;5011812;28;20410;-67
2021/07/14 03:51:12;;;;;;;4.03;1.02;;;11.20;78.20;;;;;;5016713;28;20022;-67
2021/07/14 03:53:39;;;;;;;4.97;1.25;;;11.30;77.90;;;;;;5012456;28;20673;-67
2021/07/14 03:56:06;;;;;;;63.10;44.55;;;11.20;77.80;;;;;;5014582;28;20084;-67
2021/07/14 03:58:32;;;;;;;74.45;49.15;;;11.20;77.70;;;;;;5014377;28;20022;-67
2021/07/14 04:01:00;;;;;;;54.05;37.67;;;11.30;77.90;;;;;;5014441;28;20030;-68
2021/07/14 04:03:28;;;;;;;7.82;4.82;;;11.30;77.90;;;;;;5016465;28;20033;-67
2021/07/14 04:06:03;;;;;;;5.68;1.77;;;11.30;77.50;;;;;;5012216;28;20501;-66
2021/07/14 04:08:49;;;;;;;5.55;1.00;;;11.30;77.40;;;;;;5012684;28;20036;-66
2021/07/14 04:11:16;;;;;;;4.97;0.98;;;11.30;77.40;;;;;;5011009;28;20022;-66
2021/07/14 04:14:22;;;;;;;7.00;1.27;;;11.30;77.10;;;;;;5013545;28;20037;-66
2021/07/14 04:17:28;;;;;;;5.90;1.00;;;11.30;76.90;;;;;;5011702;28;20641;-67
2021/07/14 04:20:34;;;;;;;6.75;1.00;;;11.30;76.80;;;;;;5011919;28;20385;-65
2021/07/14 04:23:01;;;;;;;4.40;1.03;;;11.30;76.50;;;;;;5011259;28;20046;-66
2021/07/14 04:25:28;;;;;;;3.08;0.65;;;11.20;76.50;;;;;;5014022;28;20030;-67
2021/07/14 04:27:54;;;;;;;4.90;1.88;;;11.20;76.50;;;;;;5008171;28;20103;-67
2021/07/14 04:30:21;;;;;;;4.68;1.58;;;11.20;76.30;;;;;;5011652;28;20436;-67
2021/07/14 04:32:48;;;;;;;2.17;0.82;;;11.20;76.30;;;;;;5013672;28;20080;-73
2021/07/14 04:35:14;;;;;;;4.43;1.25;;;11.20;76.10;;;;;;5014652;28;20022;-66
2021/07/14 04:37:42;;;;;;;93.25;60.83;;;11.10;75.90;;;;;;5012538;28;20045;-67
2021/07/14 04:40:09;;;;;;;36.78;23.70;;;11.10;76.20;;;;;;5011190;28;20013;-67
2021/07/14 04:42:35;;;;;;;11.07;5.32;;;11.10;76.30;;;;;;5013611;28;20507;-67
2021/07/14 04:45:41;;;;;;;4.43;1.40;;;11.10;76.10;;;;;;5013907;28;20033;-67
2021/07/14 04:48:08;;;;;;;4.95;0.90;;;11.10;75.90;;;;;;5010345;28;20026;-67
2021/07/14 04:50:35;;;;;;;2.60;0.80;;;11.10;76.30;;;;;;5013232;28;20481;-67
2021/07/14 04:53:01;;;;;;;3.70;0.90;;;11.10;76.90;;;;;;5012005;28;20026;-66
2021/07/14 04:55:28;;;;;;;2.90;0.80;;;11.10;76.20;;;;;;5012969;28;20026;-67
2021/07/14 04:57:54;;;;;;;8.57;1.30;;;11.10;76.10;;;;;;5012119;28;20021;-67
2021/07/14 05:00:21;;;;;;;3.33;0.63;;;11.10;76.20;;;;;;5012608;28;20101;-67
2021/07/14 05:02:48;;;;;;;3.40;1.40;;;11.10;76.40;;;;;;5010976;28;20083;-67
2021/07/14 05:05:16;;;;;;;3.97;0.98;;;11.10;76.40;;;;;;5011887;28;20015;-67
2021/07/14 05:08:22;;;;;;;1.98;0.60;;;11.00;76.10;;;;;;5010276;28;20010;-67
2021/07/14 05:11:28;;;;;;;4.07;0.82;;;11.00;76.00;;;;;;5007826;28;20025;-68
2021/07/14 05:13:54;;;;;;;2.35;1.48;;;11.10;76.10;;;;;;5004700;28;20049;-68
2021/07/14 05:16:21;;;;;;;3.65;0.50;;;11.10;76.10;;;;;;5003567;28;20030;-68
2021/07/14 05:18:47;;;;;;;2.67;0.57;;;11.10;76.00;;;;;;5007126;28;20519;-68
2021/07/14 05:21:14;;;;;;;6.70;0.63;;;11.10;75.90;;;;;;5009176;28;20021;-68
2021/07/14 05:23:40;;;;;;;2.45;1.05;;;11.00;75.80;;;;;;5006634;28;20034;-68
2021/07/14 05:26:07;;;;;;;5.45;0.80;;;11.00;76.10;;;;;;5006831;28;20026;-68
2021/07/14 05:28:33;;;;;;;6.60;1.13;;;11.00;76.20;;;;;;5005566;28;20557;-69
2021/07/14 05:31:00;;;;;;;8.10;1.65;;;11.00;76.40;;;;;;5008667;28;20030;-67
2021/07/14 05:33:26;;;;;;;6.40;1.65;;;11.00;76.40;;;;;;5007247;28;20025;-69
2021/07/14 05:35:54;;;;;;;1.85;0.63;;;11.00;76.40;;;;;;5005588;28;20017;-70
2021/07/14 05:38:21;;;;;;;3.25;1.35;;;11.00;76.40;;;;;;5004172;28;20108;-67
2021/07/14 05:40:49;;;;;;;4.00;1.40;;;10.90;76.30;;;;;;4994760;28;20013;-68
2021/07/14 05:43:16;;;;;;;2.38;1.00;;;10.90;76.60;;;;;;5007564;28;20420;-67
2021/07/14 05:45:43;;;;;;;2.53;0.68;;;10.90;76.90;;;;;;5007841;28;20018;-68
2021/07/14 05:48:10;;;;;;;3.63;0.93;;;10.90;77.40;;;;;;5009030;28;20022;-68
2021/07/14 05:50:37;;;;;;;10.38;1.52;;;10.90;77.60;;;;;;5007793;28;20014;-68
2021/07/14 05:53:05;;;;;;;4.53;0.77;;;10.90;77.80;;;;;;5009130;28;20022;-68
2021/07/14 05:55:32;;;;;;;2.90;0.82;;;10.80;77.70;;;;;;5009260;28;20025;-67
2021/07/14 05:57:58;;;;;;;2.70;0.70;;;10.80;78.30;;;;;;5011309;28;20562;-68
2021/07/14 06:00:26;;;;;;;2.78;1.20;;;10.80;78.40;;;;;;5008432;28;20436;-68
2021/07/14 06:02:53;;;;;;;5.07;0.90;;;10.80;78.50;;;;;;5007951;28;20095;-68
2021/07/14 06:05:19;;;;;;;4.70;1.17;;;10.80;78.60;;;;;;5010891;28;20513;-68
2021/07/14 06:07:46;;;;;;;2.90;1.23;;;10.90;78.80;;;;;;5008224;28;20025;-68
2021/07/14 06:10:12;;;;;;;5.57;0.98;;;10.90;79.00;;;;;;5012756;28;20058;-68
2021/07/14 06:12:39;;;;;;;3.75;1.65;;;10.90;79.10;;;;;;5011827;28;20029;-68
2021/07/14 06:15:08;;;;;;;3.80;1.13;;;10.90;79.00;;;;;;5008431;28;20010;-68
2021/07/14 06:17:35;;;;;;;4.00;1.45;;;10.90;79.00;;;;;;5009602;28;20040;-67
2021/07/14 06:20:03;;;;;;;3.58;1.10;;;10.90;79.60;;;;;;5008530;28;20111;-68
2021/07/14 06:22:29;;;;;;;4.97;1.13;;;11.00;79.10;;;;;;5012376;28;20403;-68
2021/07/14 06:24:56;;;;;;;4.22;0.93;;;11.00;78.90;;;;;;5008604;28;20053;-68
2021/07/14 06:27:25;;;;;;;1.20;0.80;;;11.00;78.80;;;;;;5012378;28;20046;-68
2021/07/14 06:29:51;;;;;;;4.32;1.30;;;11.00;78.70;;;;;;5007634;28;20060;-68
2021/07/14 06:32:18;;;;;;;4.43;0.80;;;11.00;78.60;;;;;;5009148;28;20469;-67
2021/07/14 06:34:44;;;;;;;4.43;0.85;;;11.10;78.60;;;;;;5008932;28;20478;-68
2021/07/14 06:37:10;;;;;;;3.47;0.82;;;11.10;78.50;;;;;;5011989;28;20030;-68
2021/07/14 06:39:37;;;;;;;3.67;1.00;;;11.10;78.70;;;;;;5007866;28;20048;-68
2021/07/14 06:42:04;;;;;;;2.00;0.55;;;11.10;78.60;;;;;;5009393;28;20046;-68
2021/07/14 06:44:32;;;;;;;3.58;1.95;;;11.20;78.30;;;;;;5012575;28;20024;-68
2021/07/14 06:46:58;;;;;;;1.80;0.63;;;11.20;78.30;;;;;;5011984;28;20014;-67
2021/07/14 06:49:25;;;;;;;7.93;2.05;;;11.20;78.10;;;;;;5011516;28;20120;-68
2021/07/14 06:51:51;;;;;;;6.70;1.77;;;11.30;77.90;;;;;;5010864;28;20121;-68
2021/07/14 06:54:17;;;;;;;6.07;1.40;;;11.30;77.80;;;;;;5007953;28;20019;-68
2021/07/14 06:56:44;;;;;;;4.10;0.73;;;11.30;77.50;;;;;;5008137;28;20034;-68
2021/07/14 06:59:10;;;;;;;3.33;1.00;;;11.30;76.90;;;;;;5011736;28;20073;-67
2021/07/14 07:01:37;;;;;;;2.75;1.10;;;11.30;76.90;;;;;;5008425;28;20025;-68
2021/07/14 07:04:03;;;;;;;5.43;0.80;;;11.40;77.00;;;;;;5008649;28;20024;-67
2021/07/14 07:06:30;;;;;;;4.13;1.10;;;11.40;77.00;;;;;;5012529;28;20555;-68
2021/07/14 07:08:56;;;;;;;3.33;1.58;;;11.40;76.90;;;;;;5008746;28;20076;-67
2021/07/14 07:11:23;;;;;;;3.08;1.25;;;11.40;76.30;;;;;;5009614;28;20029;-67
2021/07/14 07:13:49;;;;;;;3.40;0.88;;;11.40;76.00;;;;;;5009052;28;20025;-68
2021/07/14 07:16:16;;;;;;;3.75;1.73;;;11.40;75.50;;;;;;5008394;28;20026;-67
2021/07/14 07:18:44;;;;;;;5.00;1.55;;;11.40;75.70;;;;;;5011056;28;20070;-67
2021/07/14 07:21:10;;;;;;;6.63;1.00;;;11.40;75.80;;;;;;5009057;28;20022;-68
2021/07/14 07:23:37;;;;;;;5.20;0.80;;;11.50;75.80;;;;;;5009855;28;20034;-68
2021/07/14 07:26:05;;;;;;;2.63;0.93;;;11.50;75.80;;;;;;5006618;28;20018;-67
2021/07/14 07:28:40;;;;;;;2.95;0.80;;;11.50;75.80;;;;;;5013355;28;20066;-68
2021/07/14 07:31:09;;;;;;;2.97;1.02;;;11.50;75.50;;;;;;5007593;28;20022;-68
2021/07/14 07:33:37;;;;;;;4.10;1.30;;;11.50;75.20;;;;;;5007943;28;20018;-68
2021/07/14 07:36:05;;;;;;;4.03;1.45;;;11.60;75.10;;;;;;5007577;28;20432;-68
2021/07/14 07:38:40;;;;;;;3.42;0.95;;;11.60;74.60;;;;;;5009304;28;20021;-68
2021/07/14 07:41:06;;;;;;;3.83;1.37;;;11.60;74.20;;;;;;5007916;28;20030;-68
2021/07/14 07:43:33;;;;;;;5.80;3.30;;;11.60;74.00;;;;;;5010146;28;20650;-68
2021/07/14 07:46:00;;;;;;;1.58;0.93;;;11.60;73.70;;;;;;5008085;28;20053;-67
2021/07/14 07:48:27;;;;;;;2.47;0.95;;;11.70;73.30;;;;;;5010060;28;20014;-68
2021/07/14 07:50:54;;;;;;;2.75;0.70;;;11.70;73.30;;;;;;5007473;28;20026;-68
2021/07/14 07:53:23;;;;;;;5.53;1.55;;;11.70;73.50;;;;;;5009819;28;20064;-68
2021/07/14 07:55:51;;;;;;;3.05;0.98;;;11.80;73.60;;;;;;5009176;28;20045;-68
2021/07/14 07:58:19;;;;;;;4.30;1.23;;;11.90;74.00;;;;;;5010984;28;20546;-68
2021/07/14 08:00:46;;;;;;;2.45;1.00;;;12.00;73.60;;;;;;5011136;28;20025;-67
2021/07/14 08:03:13;;;;;;;12.25;1.45;;;12.10;72.70;;;;;;5013429;28;20042;-68
2021/07/14 08:05:40;;;;;;;4.47;0.90;;;12.20;72.70;;;;;;5012952;28;20022;-68
2021/07/14 08:08:07;;;;;;;1.95;0.85;;;12.30;72.60;;;;;;5014588;28;20064;-68
2021/07/14 08:10:34;;;;;;;5.47;1.83;;;12.40;71.60;;;;;;5013417;28;20384;-68
2021/07/14 08:13:00;;;;;;;2.88;0.90;;;12.50;71.10;;;;;;5012185;28;20026;-68
2021/07/14 08:15:27;;;;;;;3.78;0.82;;;12.50;70.70;;;;;;5012083;28;20018;-68
2021/07/14 08:17:54;;;;;;;2.30;0.82;;;12.60;70.60;;;;;;5011260;28;20413;-68
2021/07/14 08:20:20;;;;;;;9.50;1.00;;;12.70;70.60;;;;;;5011909;28;20036;-68
2021/07/14 08:22:47;;;;;;;4.95;0.77;;;12.70;70.40;;;;;;5013846;28;20030;-68
2021/07/14 08:25:13;;;;;;;4.25;1.00;;;12.80;70.40;;;;;;5012618;28;20021;-68
2021/07/14 08:27:42;;;;;;;3.85;0.85;;;12.90;70.20;;;;;;5013181;28;20028;-68
2021/07/14 08:30:10;;;;;;;1.15;0.60;;;12.90;69.60;;;;;;5011946;28;20034;-68
2021/07/14 08:32:37;;;;;;;2.78;1.02;;;13.00;69.40;;;;;;5012719;28;20088;-68
2021/07/14 08:35:05;;;;;;;5.78;1.20;;;13.00;69.90;;;;;;5011969;28;20026;-68
2021/07/14 08:37:32;;;;;;;1.52;0.60;;;13.10;70.10;;;;;;5015069;28;20029;-68
2021/07/14 08:39:59;;;;;;;5.15;0.98;;;13.10;70.20;;;;;;5012589;28;20517;-68
2021/07/14 08:42:26;;;;;;;2.10;0.95;;;13.10;70.60;;;;;;5014088;28;20491;-68
2021/07/14 08:44:54;;;;;;;6.68;1.20;;;13.20;71.10;;;;;;5015292;28;20022;-68
2021/07/14 08:47:21;;;;;;;4.22;0.70;;;13.30;71.70;;;;;;5011930;28;20018;-68
2021/07/14 08:49:50;;;;;;;2.83;0.73;;;13.30;70.00;;;;;;5013988;28;20018;-68
2021/07/14 08:52:17;;;;;;;3.65;1.65;;;13.40;70.00;;;;;;5012937;28;20416;-68
2021/07/14 08:54:46;;;;;;;1.88;0.65;;;13.40;68.80;;;;;;5012381;28;20026;-68
2021/07/14 08:57:16;;;;;;;3.60;0.80;;;13.50;69.00;;;;;;5011747;28;20052;-68
2021/07/14 08:59:43;;;;;;;5.25;1.08;;;13.60;68.90;;;;;;5009905;28;20020;-68
2021/07/14 09:02:09;;;;;;;4.00;1.02;;;13.60;69.30;;;;;;5012757;28;20067;-68
2021/07/14 09:04:37;;;;;;;4.20;1.00;;;13.60;69.40;;;;;;5011154;28;20022;-68
2021/07/14 09:07:07;;;;;;;5.47;1.05;;;13.60;69.30;;;;;;5010247;28;20029;-68
2021/07/14 09:09:35;;;;;;;6.65;1.10;;;13.70;69.60;;;;;;5011919;28;20374;-68
2021/07/14 09:12:02;;;;;;;4.35;1.60;;;13.70;69.20;;;;;;5011203;28;20037;-68
2021/07/14 09:14:33;;;;;;;3.17;1.00;;;13.60;69.20;;;;;;5012211;28;20020;-69
2021/07/14 09:17:22;;;;;;;6.38;1.50;;;13.70;69.50;;;;;;5011744;28;20010;-68
2021/07/14 09:19:49;;;;;;;1.02;0.60;;;13.70;69.70;;;;;;5010797;28;20111;-68
2021/07/14 09:22:24;;;;;;;6.53;0.98;;;13.70;69.90;;;;;;5009324;28;20067;-68
2021/07/14 09:24:56;;;;;;;4.10;1.20;;;13.70;70.00;;;;;;5012002;28;20040;-68
2021/07/14 09:27:27;;;;;;;2.95;1.02;;;13.60;70.00;;;;;;5010497;28;20044;-69
2021/07/14 09:30:10;;;;;;;5.10;0.98;;;13.70;70.50;;;;;;5013524;28;20029;-68
2021/07/14 09:32:48;;;;;;;7.00;1.00;;;13.70;70.50;;;;;;5012093;28;20053;-68
2021/07/14 09:35:23;;;;;;;5.25;1.13;;;13.70;70.60;;;;;;5009353;28;20032;-68
2021/07/14 09:37:50;;;;;;;;;;;13.80;70.60;;;;;;5012236;28;20014;-68
2021/07/14 09:40:17;;;;;;;4.32;1.08;;;13.90;70.80;;;;;;5012375;28;20423;-68
2021/07/14 09:43:03;;;;;;;2.65;1.67;;;13.90;71.20;;;;;;5010741;28;20531;-69
2021/07/14 09:45:49;;;;;;;5.47;1.35;;;14.00;71.50;;;;;;5011864;28;20025;-68
2021/07/14 09:48:20;;;;;;;4.53;0.80;;;14.10;71.20;;;;;;5012235;28;20120;-68
2021/07/14 09:51:00;;;;;;;3.40;1.10;;;14.10;70.90;;;;;;5010447;28;20651;-68
2021/07/14 09:53:30;;;;;;;6.68;1.00;;;14.20;70.80;;;;;;5011777;28;20021;-68
2021/07/14 09:55:59;;;;;;;4.35;1.25;;;14.20;70.60;;;;;;5010464;28;20151;-68
2021/07/14 09:58:28;;;;;;;4.68;1.30;;;14.30;70.70;;;;;;5011639;28;20014;-68
2021/07/14 10:01:03;;;;;;;5.35;1.27;;;14.30;70.70;;;;;;5010307;28;20108;-68
2021/07/14 10:03:36;;;;;;;4.13;1.00;;;14.40;70.70;;;;;;5012024;28;20432;-68
2021/07/14 10:06:11;;;;;;;7.18;1.17;;;14.50;70.40;;;;;;5009215;28;20112;-68
2021/07/14 10:08:38;;;;;;;;;;;14.50;70.10;;;;;;5011010;28;20488;-68
2021/07/14 10:11:12;;;;;;;2.90;1.25;;;14.60;69.50;;;;;;5011204;28;19996;-66
2021/07/14 10:13:40;;;;;;;2.83;1.33;;;14.60;68.60;;;;;;5008863;28;20029;-69
2021/07/14 10:16:07;;;;;;;5.50;1.40;;;14.60;69.00;;;;;;5008361;28;20017;-68
2021/07/14 10:18:34;;;;;;;4.57;1.95;;;14.70;69.10;;;;;;5009373;28;20046;-68
2021/07/14 10:21:04;;;;;;;4.75;0.82;;;14.70;69.30;;;;;;5010546;28;20032;-67
2021/07/14 10:23:32;;;;;;;4.57;0.75;;;14.80;69.00;;;;;;5009919;28;20029;-69
2021/07/14 10:26:00;;;;;;;5.32;1.20;;;14.80;68.80;;;;;;5011294;28;20632;-68
2021/07/14 10:28:29;;;;;;;6.70;0.98;;;14.90;68.80;;;;;;5009934;28;20033;-68
2021/07/14 10:30:56;;;;;;;5.47;0.90;;;14.90;69.10;;;;;;5008666;28;20057;-69
2021/07/14 10:33:24;;;;;;;7.72;1.63;;;15.00;68.70;;;;;;5010744;28;20017;-68
2021/07/14 10:35:52;;;;;;;4.43;1.10;;;15.00;68.40;;;;;;5008714;28;20025;-69
2021/07/14 10:38:25;;;;;;;7.78;1.42;;;15.10;68.20;;;;;;5011268;28;20096;-69
2021/07/14 10:40:53;;;;;;;2.20;1.35;;;15.20;68.50;;;;;;5009848;28;20565;-67
2021/07/14 10:43:23;;;;;;;3.58;0.60;;;15.30;66.20;;;;;;5009898;28;20128;-67
2021/07/14 10:45:50;;;;;;;2.58;0.88;;;15.30;63.90;;;;;;5010568;28;20029;-67
2021/07/14 10:48:20;;;;;;;4.10;0.68;;;15.30;62.80;;;;;;5008901;28;20022;-67
2021/07/14 10:50:48;;;;;;;1.80;0.60;;;15.40;62.80;;;;;;5010636;28;20014;-67
2021/07/14 10:53:17;;;;;;;1.98;0.50;;;15.40;62.50;;;;;;5008712;28;20388;-67
2021/07/14 10:55:45;;;;;;;0.93;0.50;;;15.40;61.30;;;;;;5011025;28;20034;-67
2021/07/14 10:58:16;;;;;;;5.13;1.35;;;15.50;61.70;;;;;;5009136;28;20549;-67
2021/07/14 11:00:45;;;;;;;0.93;0.40;;;15.60;61.40;;;;;;5009445;28;20026;-67
2021/07/14 11:03:41;;;;;;;1.75;0.63;;;15.70;61.40;;;;;;5010057;28;20045;-67
2021/07/14 11:06:10;;;;;;;3.20;0.45;;;15.90;61.00;;;;;;5009093;28;20065;-67
2021/07/14 11:08:50;;;;;;;4.40;0.32;;;16.00;60.70;;;;;;5009427;28;20026;-67
2021/07/14 11:11:21;;;;;;;0.45;0.45;;;16.20;59.90;;;;;;5009459;28;20117;-68
2021/07/14 11:14:03;;;;;;;2.80;0.50;;;16.30;59.20;;;;;;5009214;28;20569;-67
2021/07/14 11:16:37;;;;;;;0.73;0.45;;;16.40;58.40;;;;;;5010084;28;20033;-67
2021/07/14 11:19:17;;;;;;;3.55;0.57;;;16.50;57.70;;;;;;5006516;28;20045;-67
2021/07/14 11:21:50;;;;;;;1.95;0.60;;;16.50;57.50;;;;;;5010721;28;20100;-67
2021/07/14 11:24:46;;;;;;;1.13;0.50;;;16.50;57.80;;;;;;5008928;28;20021;-67
2021/07/14 11:27:27;;;;;;;3.55;1.33;;;16.60;57.10;;;;;;5008983;28;20499;-67
2021/07/14 11:29:55;;;;;;;0.77;0.55;;;16.60;56.90;;;;;;5008552;28;20041;-67
2021/07/14 11:32:40;;;;;;;0.75;0.47;;;16.70;57.40;;;;;;5007933;28;20026;-67
2021/07/14 11:35:16;;;;;;;6.87;0.50;;;16.70;57.00;;;;;;5012011;28;20083;-67
2021/07/14 11:37:45;;;;;;;2.85;0.32;;;16.70;56.90;;;;;;5013084;28;20087;-67
2021/07/14 11:40:20;;;;;;;3.20;0.60;;;16.70;57.00;;;;;;5011838;28;20029;-67
2021/07/14 11:42:52;;;;;;;1.40;0.40;;;16.80;57.00;;;;;;5014575;28;20121;-67
2021/07/14 11:45:36;;;;;;;1.20;0.32;;;16.80;57.40;;;;;;5010424;28;20624;-67
2021/07/14 11:48:08;;;;;;;0.52;0.30;;;16.80;56.20;;;;;;5011509;28;20050;-67
2021/07/14 11:50:48;;;;;;;0.40;0.17;;;16.90;56.40;;;;;;5012611;28;20022;-67
2021/07/14 11:53:27;;;;;;;1.75;0.20;;;16.70;56.00;;;;;;5012639;28;20513;-67
2021/07/14 11:56:24;;;;;;;1.70;1.13;;;16.70;56.30;;;;;;5012669;28;20385;-67
2021/07/14 11:59:06;;;;;;;0.73;0.30;;;16.60;56.40;;;;;;5013562;28;20100;-67
2021/07/14 12:01:32;;;;;;;0.28;0.28;;;16.70;57.10;;;;;;5012889;28;20025;-67
2021/07/14 12:04:01;;;;;;;3.22;0.63;;;16.80;57.10;;;;;;5012927;28;20038;-67
2021/07/14 12:06:44;;;;;;;1.10;0.25;;;16.80;57.30;;;;;;5011806;28;20026;-67
2021/07/14 12:09:13;;;;;;;1.65;0.50;;;16.90;57.00;;;;;;5012335;28;20032;-67
2021/07/14 12:11:43;;;;;;;1.83;0.30;;;17.00;56.50;;;;;;5012777;28;20026;-67
2021/07/14 12:14:11;;;;;;;1.10;0.38;;;17.00;56.30;;;;;;5012747;28;20515;-67
2021/07/14 12:16:37;;;;;;;3.92;0.40;;;17.00;56.30;;;;;;5012192;28;20018;-67
2021/07/14 12:19:04;;;;;;;0.75;0.35;;;16.90;56.20;;;;;;5011132;28;20122;-67
2021/07/14 12:21:40;;;;;;;1.33;0.30;;;16.90;56.10;;;;;;5012897;28;20021;-67
2021/07/14 12:24:25;;;;;;;0.25;0.17;;;16.90;56.30;;;;;;5011016;28;20393;-67
2021/07/14 12:26:58;;;;;;;0.65;0.38;;;16.90;56.40;;;;;;5012715;28;20184;-67
2021/07/14 12:29:25;;;;;;;0.68;0.28;;;16.90;56.00;;;;;;5011714;28;20018;-67
2021/07/14 12:31:51;;;;;;;0.57;0.40;;;16.90;55.50;;;;;;5011844;28;20024;-67
2021/07/14 12:34:36;;;;;;;1.35;0.28;;;16.90;55.40;;;;;;5013030;28;20033;-67
2021/07/14 12:37:05;;;;;;;3.72;0.65;;;16.90;55.80;;;;;;5009040;28;20021;-67
2021/07/14 12:39:35;;;;;;;0.20;0.10;;;16.90;55.50;;;;;;5012691;28;20029;-67
2021/07/14 12:42:05;;;;;;;3.05;0.32;;;16.90;55.60;;;;;;5011124;28;20022;-68
2021/07/14 12:44:32;;;;;;;1.65;0.20;;;16.90;55.30;;;;;;5013266;28;20026;-67
2021/07/14 12:47:20;;;;;;;1.60;0.32;;;16.90;55.60;;;;;;5011713;28;20025;-67
2021/07/14 12:49:48;;;;;;;2.20;0.88;;;16.90;56.00;;;;;;5009514;28;20018;-67
2021/07/14 12:52:20;;;;;;;0.17;0.17;;;16.90;56.00;;;;;;5012975;28;20040;-67
2021/07/14 12:54:55;;;;;;;0.45;0.20;;;16.90;55.80;;;;;;5009364;28;20022;-67
2021/07/14 12:57:27;;;;;;;3.90;0.55;;;17.00;55.90;;;;;;5011719;28;20014;-67
2021/07/14 13:00:01;;;;;;;1.38;0.43;;;17.00;56.00;;;;;;5012163;28;20129;-67
2021/07/14 13:02:38;;;;;;;2.78;0.52;;;17.10;55.80;;;;;;5010900;28;20113;-67
2021/07/14 13:05:06;;;;;;;1.45;0.52;;;17.20;55.20;;;;;;5011546;28;20026;-67
2021/07/14 13:07:36;;;;;;;0.60;0.40;;;17.30;55.00;;;;;;5012568;28;20044;-67
2021/07/14 13:10:07;;;;;;;1.65;0.50;;;17.30;55.00;;;;;;5013426;28;20104;-67
2021/07/14 13:12:35;;;;;;;1.10;0.50;;;17.30;54.80;;;;;;5010709;28;20028;-67
2021/07/14 13:15:01;;;;;;;0.73;0.30;;;17.20;54.30;;;;;;5010136;28;20079;-67
2021/07/14 13:17:38;;;;;;;2.00;0.40;;;17.10;54.50;;;;;;5011882;28;20519;-67
2021/07/14 13:20:11;;;;;;;2.83;0.50;;;17.10;54.60;;;;;;5010686;28;20029;-67